Terminal Aerodrome Forecast
Issued by NWS

Home | Current Version | Previous Version | Text Only | Print | Product List | Glossary On
Versions: 1 2 3 4 5 6 7 8 9 10 11 12 13 14 15 16 17 18 19 20 21 22 23 24 25 26 27
000
FTUS41 KGYX 172320
TAFLEB
TAF
KLEB 172320Z 1800/1824 24003KT P6SM SCT250
     FM180600 00000KT 1/4SM FG VV001
     FM181200 00000KT 2SM BR BKN005
     FM181300 32004KT P6SM BKN080=

USA.gov is the U.S. government's official web portal to all federal, state and local government web resources and services.